Wolfeboro Falls, NH

2:44 AM EST on March 06, 2015 (GMT -0500)
Ossipee Woods | Change Station
CLOSE
Current Station
Personal Weather Station
Location: Ossipee, NH
Elevation: 653 ft
Nearby Weather Stations

Elev 653 ft 43.69 °N, 71.10 °W | Updated 4 minutes ago

Clear
Clear
-8.6 °F
Feels Like -9 °F
N
0.0
Wind Variable Wind from West
Gusts 16.0 mph

Today
High -- | Low -- °F
--% Chance of Precip.
Yesterday
High -- | Low -- °F
Precip. -- in
6:13 AM 5:39 PM
Full, 100% visible
Pressure 30.33 in
Visibility 10.0 miles
Clouds Clear
Windchill -9 °F
Dew Point -13 °F
Humidity 80%
Rainfall in
Snow Depth Not available.
UV 0 out of 12
Pollen .30 out of 12
Air Quality Not available.
Flu Activity Not available.
METAR KLCI 060735Z AUTO 26004KT 10SM CLR M15/M24 A3033 RMK AO1

More Conditions Fewer Conditions

Pressure 30.33 in
Visibility 10.0 miles
Clouds Clear
Windchill -9 °F
Dew Point -13 °F
Humidity 80%
Rainfall in
Snow Depth Not available.
UV 0 out of 12
Pollen .30 out of 12
Air Quality Not available.
Flu Activity Not available.
METAR KLCI 060735Z AUTO 26004KT 10SM CLR M15/M24 A3033 RMK AO1

More Conditions Fewer Conditions

10-Day Weather Forecast

Almanac

Astronomy

Mar. 06, 2015 Rise Set
Actual Time
Civil Twilight
Nautical Twilight
Astronomical Twilight
Moon
Length of Visible Light
Length of Day
Tomorrow will be .
, % of the Moon is Illuminated

Today's Extremes

State Highs State Lows

Community

WunderPhotos

Upload Photos

1,803,199 photos uploaded!

WunderBlogs® & News

Nearby

Air Quality

  Air Quality AQ Index Pollutant
Not available.

Snow Depth

Station Depth Elevation

Earthquake Activity

City Distance Mag. Time & Date
Minimum magnitude displayed is 2.5.

Coastal Water Temperatures

Place Temperature

Nearby Weather Stations